createdAt,value
2022-08-17T00:01:37.254Z,39.87
2022-08-17T00:04:19.886Z,40.19
2022-08-17T00:06:49.441Z,39.11
2022-08-17T00:09:18.323Z,39.95
2022-08-17T00:12:34.907Z,39.84
2022-08-17T00:14:36.096Z,39.68
2022-08-17T00:17:06.519Z,40.18
2022-08-17T00:19:34.116Z,40.78
2022-08-17T00:22:32.001Z,40.99
2022-08-17T00:24:50.665Z,40.27
2022-08-17T00:27:18.033Z,40.63
2022-08-17T00:29:45.955Z,40.46
2022-08-17T00:33:14.211Z,40.59
2022-08-17T00:35:05.005Z,40.28
2022-08-17T00:37:32.056Z,40.81
2022-08-17T00:39:58.897Z,40.00
2022-08-17T00:42:30.825Z,40.80
2022-08-17T00:44:58.940Z,39.46
2022-08-17T00:47:25.860Z,39.12
2022-08-17T00:49:52.755Z,40.42
2022-08-17T00:52:23.130Z,40.05
2022-08-17T00:54:54.027Z,40.54
2022-08-17T00:57:30.110Z,40.71
2022-08-17T01:00:06.411Z,41.04
2022-08-17T01:02:43.127Z,40.55
2022-08-17T01:05:15.069Z,40.70
2022-08-17T01:07:43.082Z,40.27
2022-08-17T01:11:00.185Z,40.70
2022-08-17T01:13:02.562Z,40.60
2022-08-17T01:15:37.460Z,41.10
2022-08-17T01:18:07.892Z,40.61
2022-08-17T01:20:48.584Z,40.30
2022-08-17T01:23:20.907Z,40.49
2022-08-17T01:25:51.391Z,40.51
2022-08-17T01:28:33.316Z,40.67
2022-08-17T01:31:08.258Z,41.20
2022-08-17T01:33:36.136Z,41.23
2022-08-17T01:36:04.194Z,40.91
2022-08-17T01:38:31.972Z,40.47
2022-08-17T01:41:04.772Z,40.89
2022-08-17T01:44:00.410Z,41.05
2022-08-17T01:46:32.117Z,41.08
2022-08-17T01:48:59.761Z,41.25
2022-08-17T01:51:32.477Z,41.14
2022-08-17T01:54:02.499Z,41.63
2022-08-17T01:56:31.628Z,41.43
2022-08-17T01:58:58.627Z,41.58
2022-08-17T02:01:28.101Z,41.60
2022-08-17T02:04:00.447Z,41.87
2022-08-17T02:06:44.826Z,42.51
2022-08-17T02:09:16.909Z,42.50
2022-08-17T02:11:44.775Z,43.40
2022-08-17T02:14:13.327Z,42.78
2022-08-17T02:16:40.912Z,42.36
2022-08-17T02:19:13.327Z,41.63
2022-08-17T02:21:43.039Z,43.04
2022-08-17T02:24:15.495Z,42.98
2022-08-17T02:26:42.491Z,43.58
2022-08-17T02:29:09.320Z,43.66
2022-08-17T02:31:36.318Z,43.57
2022-08-17T02:34:05.361Z,43.03
2022-08-17T02:36:34.559Z,42.66
2022-08-17T02:39:06.173Z,42.48
2022-08-17T02:41:33.137Z,42.70
2022-08-17T02:44:00.282Z,43.01
2022-08-17T02:46:27.574Z,42.58
2022-08-17T02:48:54.318Z,42.48
2022-08-17T02:51:21.104Z,42.55
2022-08-17T02:53:48.269Z,42.21
2022-08-17T02:56:15.122Z,42.52
2022-08-17T02:58:41.996Z,43.24
2022-08-17T03:01:10.555Z,43.27
2022-08-17T03:03:38.248Z,43.01
2022-08-17T03:06:06.312Z,43.52
2022-08-17T03:08:35.278Z,43.29
2022-08-17T03:11:02.095Z,43.43
2022-08-17T03:13:30.761Z,43.87
2022-08-17T03:15:57.880Z,43.64
2022-08-17T03:18:26.405Z,43.70
2022-08-17T03:21:01.274Z,43.42
2022-08-17T03:23:29.420Z,44.68
2022-08-17T03:25:57.314Z,44.76
2022-08-17T03:28:24.597Z,44.30
2022-08-17T03:30:52.115Z,44.31
2022-08-17T03:33:19.368Z,44.00
2022-08-17T03:35:46.367Z,43.98
2022-08-17T03:38:15.040Z,43.75
2022-08-17T03:40:56.674Z,43.91
2022-08-17T03:43:29.872Z,44.09
2022-08-17T03:46:27.940Z,43.98
2022-08-17T03:49:19.601Z,44.24
2022-08-17T03:52:05.140Z,44.19
2022-08-17T03:54:50.495Z,44.04
2022-08-17T03:57:19.289Z,43.89
2022-08-17T03:59:46.549Z,44.93
2022-08-17T04:02:19.887Z,44.67
2022-08-17T04:04:50.804Z,43.69
2022-08-17T04:07:20.012Z,43.71
2022-08-17T04:09:48.899Z,44.19
2022-08-17T04:12:18.440Z,44.19
2022-08-17T04:14:52.854Z,44.32
2022-08-17T04:17:23.378Z,45.24
2022-08-17T04:19:50.256Z,44.86
2022-08-17T04:22:30.666Z,45.44
2022-08-17T04:25:15.596Z,45.21
2022-08-17T04:27:42.549Z,44.52
2022-08-17T04:30:09.975Z,44.76
2022-08-17T04:33:10.602Z,44.46
2022-08-17T04:35:39.164Z,44.00
2022-08-17T04:38:08.012Z,44.25
2022-08-17T04:40:53.419Z,44.03
2022-08-17T04:43:22.972Z,44.26
2022-08-17T04:45:55.935Z,43.66
2022-08-17T04:48:36.512Z,42.83
2022-08-17T04:51:11.548Z,43.03
2022-08-17T04:53:41.572Z,43.22
2022-08-17T04:56:16.219Z,42.34
2022-08-17T04:58:45.814Z,42.99
2022-08-17T05:01:13.126Z,42.62
2022-08-17T05:03:40.200Z,42.96
2022-08-17T05:06:07.025Z,42.66
2022-08-17T05:08:33.843Z,42.85
2022-08-17T05:11:00.732Z,43.40
2022-08-17T05:13:31.648Z,43.54
2022-08-17T05:16:01.077Z,43.47
2022-08-17T05:18:29.543Z,43.16
2022-08-17T05:20:58.010Z,43.11
2022-08-17T05:23:26.964Z,42.79
2022-08-17T05:26:03.862Z,42.37
2022-08-17T05:28:34.984Z,41.77
2022-08-17T05:31:03.589Z,41.99
2022-08-17T05:33:34.217Z,42.27
2022-08-17T05:36:03.612Z,43.07
2022-08-17T05:38:31.147Z,41.56
2022-08-17T05:40:59.179Z,41.61
2022-08-17T05:43:30.141Z,42.37
2022-08-17T05:46:06.513Z,42.17
2022-08-17T05:48:46.249Z,42.19
2022-08-17T05:52:01.246Z,41.09
2022-08-17T05:54:44.796Z,41.74
2022-08-17T05:57:47.636Z,40.76
2022-08-17T06:00:59.905Z,41.57
2022-08-17T06:03:35.527Z,41.55
2022-08-17T06:06:17.576Z,40.86
2022-08-17T06:08:51.665Z,40.77
2022-08-17T06:11:24.352Z,40.82
2022-08-17T06:14:48.217Z,40.72
2022-08-17T06:17:21.980Z,40.97
2022-08-17T06:19:56.401Z,42.06
2022-08-17T06:22:28.090Z,40.72
2022-08-17T06:25:01.109Z,40.28
2022-08-17T06:27:58.687Z,40.11
2022-08-17T06:30:28.942Z,42.45
2022-08-17T06:33:22.336Z,42.14
2022-08-17T06:36:09.206Z,41.42
2022-08-17T06:38:56.358Z,41.16
2022-08-17T06:41:45.051Z,40.14
2022-08-17T06:44:42.294Z,40.43
2022-08-17T06:47:51.325Z,41.03
2022-08-17T06:50:42.491Z,39.73
2022-08-17T06:53:37.416Z,39.17
2022-08-17T06:56:08.778Z,40.11
2022-08-17T06:58:38.919Z,40.98
2022-08-17T07:01:28.345Z,39.40
2022-08-17T07:04:15.602Z,38.13
2022-08-17T07:06:58.176Z,38.02
2022-08-17T07:09:38.049Z,39.64
2022-08-17T07:12:17.372Z,40.36
2022-08-17T07:15:10.359Z,40.11
2022-08-17T07:17:47.357Z,39.33
2022-08-17T07:20:20.611Z,38.06
2022-08-17T07:22:59.871Z,36.74
2022-08-17T07:25:30.485Z,36.84
2022-08-17T07:28:02.440Z,38.08
2022-08-17T07:30:48.968Z,37.33
2022-08-17T07:33:20.055Z,35.87
2022-08-17T07:35:48.440Z,35.60
2022-08-17T07:38:24.919Z,35.48
2022-08-17T07:41:03.355Z,36.30
2022-08-17T07:43:39.551Z,37.06
2022-08-17T07:46:25.212Z,36.25
2022-08-17T07:48:55.291Z,35.30
2022-08-17T07:51:39.512Z,35.88
2022-08-17T07:54:15.392Z,34.86
2022-08-17T07:56:44.711Z,35.70
2022-08-17T07:59:14.397Z,35.55
2022-08-17T08:01:46.246Z,33.88
2022-08-17T08:04:59.151Z,33.53
2022-08-17T08:07:17.364Z,34.62
2022-08-17T08:10:03.987Z,33.42
2022-08-17T08:12:36.643Z,33.66
2022-08-17T08:15:09.714Z,33.91
2022-08-17T08:17:49.634Z,33.14
2022-08-17T08:20:34.915Z,32.94
2022-08-17T08:23:15.574Z,32.18
2022-08-17T08:26:30.977Z,32.00
2022-08-17T08:29:18.444Z,33.17
2022-08-17T08:31:57.674Z,31.60
2022-08-17T08:35:01.106Z,31.24
2022-08-17T08:37:47.432Z,31.11
2022-08-17T08:40:36.032Z,31.44
2022-08-17T08:43:06.002Z,30.99
2022-08-17T08:45:48.546Z,30.63
2022-08-17T08:48:53.226Z,30.85
2022-08-17T08:51:59.266Z,31.81
2022-08-17T08:54:35.941Z,30.11
2022-08-17T08:57:34.262Z,31.02
2022-08-17T09:00:15.113Z,30.96
2022-08-17T09:03:12.970Z,30.78
2022-08-17T09:06:06.816Z,30.37
2022-08-17T09:09:11.798Z,30.51
2022-08-17T09:12:01.374Z,30.38
2022-08-17T09:14:46.912Z,28.56
2022-08-17T09:18:21.406Z,29.26
2022-08-17T09:20:51.448Z,28.29
2022-08-17T09:23:42.456Z,27.79
2022-08-17T09:26:22.849Z,28.55
2022-08-17T09:29:01.410Z,28.05
2022-08-17T09:31:47.043Z,28.57
2022-08-17T09:34:22.117Z,27.55
2022-08-17T09:37:11.577Z,27.87
2022-08-17T09:39:58.309Z,27.38
2022-08-17T09:42:45.173Z,26.60
2022-08-17T09:45:42.643Z,26.85
2022-08-17T09:48:24.338Z,27.16
2022-08-17T09:51:07.125Z,28.17
2022-08-17T09:53:38.620Z,28.27
2022-08-17T09:56:56.523Z,27.40
2022-08-17T09:59:56.987Z,26.16
2022-08-17T10:02:40.554Z,26.65
2022-08-17T10:05:21.883Z,27.72
2022-08-17T10:07:55.978Z,25.51
2022-08-17T10:10:32.386Z,26.45
2022-08-17T10:13:24.141Z,26.15
2022-08-17T10:16:04.464Z,25.87
2022-08-17T10:19:02.194Z,26.30
2022-08-17T10:22:01.530Z,25.95
2022-08-17T10:25:22.856Z,26.48
2022-08-17T10:27:55.000Z,25.55
2022-08-17T10:30:26.785Z,25.13
2022-08-17T10:32:59.307Z,24.27
2022-08-17T10:35:44.662Z,23.86
2022-08-17T10:38:28.415Z,24.18
2022-08-17T10:41:03.351Z,24.43
2022-08-17T10:44:38.659Z,24.57
2022-08-17T10:47:09.126Z,23.75
2022-08-17T10:49:39.079Z,24.52
2022-08-17T10:52:24.921Z,24.28
2022-08-17T10:54:58.335Z,24.39
2022-08-17T10:57:45.952Z,24.00
2022-08-17T11:00:35.219Z,24.01
2022-08-17T11:03:03.754Z,24.40
2022-08-17T11:05:43.817Z,23.82
2022-08-17T11:08:32.140Z,23.83
2022-08-17T11:11:20.213Z,23.46
2022-08-17T11:14:08.813Z,23.44
2022-08-17T11:16:54.219Z,23.83
2022-08-17T11:19:47.271Z,23.12
2022-08-17T11:22:20.158Z,23.31
2022-08-17T11:24:51.341Z,25.00
2022-08-17T11:27:32.396Z,24.51
2022-08-17T11:30:05.370Z,25.65
2022-08-17T11:32:47.825Z,26.17
2022-08-17T11:35:21.460Z,25.06
2022-08-17T11:37:59.003Z,24.44
2022-08-17T11:40:50.952Z,25.27
2022-08-17T11:43:42.946Z,25.15
2022-08-17T11:46:59.468Z,25.32
2022-08-17T11:50:01.350Z,26.17
2022-08-17T11:52:48.012Z,26.71
2022-08-17T11:55:38.515Z,26.79
2022-08-17T11:58:30.606Z,27.62
2022-08-17T12:01:23.327Z,28.83
2022-08-17T12:03:57.197Z,28.59
2022-08-17T12:06:29.654Z,28.51
2022-08-17T12:09:12.383Z,28.41
2022-08-17T12:11:56.393Z,28.11
2022-08-17T12:15:08.440Z,27.77
2022-08-17T12:17:41.525Z,28.19
2022-08-17T12:20:40.359Z,27.46
2022-08-17T12:23:50.250Z,26.20
2022-08-17T12:26:25.186Z,26.56
2022-08-17T12:29:03.297Z,27.25
2022-08-17T12:31:44.287Z,26.27
2022-08-17T12:34:34.967Z,28.06
2022-08-17T12:37:19.450Z,27.49
2022-08-17T12:39:57.866Z,28.02
2022-08-17T12:42:29.635Z,27.59
2022-08-17T12:44:57.172Z,27.54
2022-08-17T12:47:24.438Z,27.07
2022-08-17T12:50:08.321Z,27.55
2022-08-17T12:52:59.648Z,26.21
2022-08-17T12:55:35.110Z,25.44
2022-08-17T12:58:02.415Z,24.29
2022-08-17T13:00:32.436Z,24.35
2022-08-17T13:03:07.901Z,23.33
2022-08-17T13:05:44.155Z,23.47
2022-08-17T13:08:24.569Z,25.39
2022-08-17T13:10:58.707Z,24.11
2022-08-17T13:13:34.841Z,24.59
2022-08-17T13:16:04.568Z,24.15
2022-08-17T13:18:36.004Z,24.37
2022-08-17T13:21:02.975Z,24.03
2022-08-17T13:23:32.350Z,23.60
2022-08-17T13:26:07.708Z,23.94
2022-08-17T13:28:37.547Z,23.23
2022-08-17T13:31:28.191Z,23.14
2022-08-17T13:34:18.685Z,22.77
2022-08-17T13:36:48.871Z,24.16
2022-08-17T13:39:20.983Z,23.49
2022-08-17T13:41:50.123Z,23.34
2022-08-17T13:44:32.695Z,23.14
2022-08-17T13:47:00.841Z,23.00
2022-08-17T13:49:49.028Z,23.02
2022-08-17T13:52:40.235Z,23.21
2022-08-17T13:55:17.840Z,23.45
2022-08-17T13:58:03.503Z,22.11
2022-08-17T14:00:36.349Z,22.95
2022-08-17T14:03:05.350Z,22.59
2022-08-17T14:05:32.564Z,22.66
2022-08-17T14:08:06.805Z,22.27
2022-08-17T14:10:36.434Z,22.52
2022-08-17T14:13:04.849Z,21.94
2022-08-17T14:15:54.950Z,22.20
2022-08-17T14:18:50.581Z,21.93
2022-08-17T14:21:08.860Z,21.91
2022-08-17T14:23:37.134Z,22.09
2022-08-17T14:26:04.729Z,21.95
2022-08-17T14:28:32.154Z,23.00
2022-08-17T14:31:00.868Z,22.40
2022-08-17T14:33:31.964Z,22.19
2022-08-17T14:35:58.863Z,23.19
2022-08-17T14:38:25.861Z,22.59
2022-08-17T14:40:52.897Z,22.31
2022-08-17T14:43:20.455Z,22.29
2022-08-17T14:45:49.752Z,21.48
2022-08-17T14:48:16.553Z,21.54
2022-08-17T14:50:44.289Z,21.12
2022-08-17T14:53:13.552Z,21.59
2022-08-17T14:55:40.781Z,20.90
2022-08-17T14:58:08.814Z,21.63
2022-08-17T15:00:36.735Z,20.73
2022-08-17T15:03:04.270Z,21.32
2022-08-17T15:05:34.697Z,20.65
2022-08-17T15:08:03.564Z,20.71
2022-08-17T15:10:31.554Z,20.41
2022-08-17T15:12:58.807Z,20.44
2022-08-17T15:15:26.338Z,20.15
2022-08-17T15:17:53.253Z,20.84
2022-08-17T15:20:23.887Z,20.96
2022-08-17T15:22:51.048Z,20.72
2022-08-17T15:25:19.144Z,20.87
2022-08-17T15:27:47.486Z,21.52
2022-08-17T15:30:15.154Z,21.93
2022-08-17T15:32:50.839Z,20.92
2022-08-17T15:35:27.957Z,20.99
2022-08-17T15:38:06.274Z,20.97
2022-08-17T15:40:41.587Z,21.10
2022-08-17T15:43:11.705Z,21.78
2022-08-17T15:45:39.370Z,21.57
2022-08-17T15:48:06.913Z,22.13
2022-08-17T15:50:36.233Z,22.33
2022-08-17T15:53:04.802Z,23.41
2022-08-17T15:55:33.254Z,23.28
2022-08-17T15:58:00.628Z,22.12
2022-08-17T16:00:29.205Z,21.81
2022-08-17T16:03:47.068Z,22.28
2022-08-17T16:05:47.340Z,22.65
2022-08-17T16:08:20.128Z,22.61
2022-08-17T16:10:47.857Z,22.92
2022-08-17T16:13:17.894Z,23.49
2022-08-17T16:15:49.755Z,23.89
2022-08-17T16:18:31.140Z,24.12
2022-08-17T16:21:23.968Z,24.13
2022-08-17T16:24:03.893Z,23.89
2022-08-17T16:26:32.997Z,23.56
2022-08-17T16:29:01.807Z,23.84
2022-08-17T16:31:29.396Z,23.71
2022-08-17T16:34:16.124Z,23.82
2022-08-17T16:36:54.722Z,23.12
2022-08-17T16:39:24.645Z,21.95
2022-08-17T16:41:51.396Z,21.70
2022-08-17T16:44:20.821Z,22.46
2022-08-17T16:46:48.934Z,21.44
2022-08-17T16:49:34.448Z,21.37
2022-08-17T16:52:04.784Z,22.08
2022-08-17T16:54:31.966Z,21.32
2022-08-17T16:56:58.856Z,21.72
2022-08-17T16:59:38.792Z,21.79
2022-08-17T17:02:11.388Z,21.93
2022-08-17T17:04:50.649Z,22.33
2022-08-17T17:07:40.249Z,21.97
2022-08-17T17:10:14.459Z,22.12
2022-08-17T17:13:03.133Z,22.06
2022-08-17T17:15:45.613Z,22.74
2022-08-17T17:18:14.820Z,23.08
2022-08-17T17:20:54.771Z,22.93
2022-08-17T17:23:30.496Z,22.75
2022-08-17T17:26:17.082Z,22.85
2022-08-17T17:29:10.517Z,22.65
2022-08-17T17:31:44.624Z,23.14
2022-08-17T17:34:16.265Z,23.06
2022-08-17T17:36:51.933Z,23.64
2022-08-17T17:39:43.602Z,23.06
2022-08-17T17:42:14.799Z,23.68
2022-08-17T17:44:54.220Z,23.70
2022-08-17T17:47:21.479Z,23.89
2022-08-17T17:49:48.776Z,24.43
2022-08-17T17:52:24.504Z,23.98
2022-08-17T17:55:03.362Z,24.11
2022-08-17T17:57:48.892Z,24.83
2022-08-17T18:00:24.279Z,24.39
2022-08-17T18:02:52.784Z,25.11
2022-08-17T18:05:22.838Z,25.34
2022-08-17T18:08:09.288Z,25.59
2022-08-17T18:10:58.045Z,25.26
2022-08-17T18:13:27.569Z,25.31
2022-08-17T18:15:56.400Z,25.79
2022-08-17T18:18:37.578Z,25.42
2022-08-17T18:21:15.836Z,25.26
2022-08-17T18:23:51.860Z,25.95
2022-08-17T18:26:38.222Z,25.86
2022-08-17T18:29:37.581Z,25.47
2022-08-17T18:32:23.823Z,26.74
2022-08-17T18:35:27.925Z,25.58
2022-08-17T18:38:20.445Z,25.46
2022-08-17T18:40:58.657Z,25.80
2022-08-17T18:43:44.393Z,25.96
2022-08-17T18:46:35.101Z,25.85
2022-08-17T18:49:24.238Z,26.02
2022-08-17T18:52:09.728Z,25.78
2022-08-17T18:54:37.356Z,26.03
2022-08-17T18:57:06.673Z,26.53
2022-08-17T18:59:44.460Z,26.17
2022-08-17T19:02:22.064Z,25.82
2022-08-17T19:04:53.310Z,25.97
2022-08-17T19:07:23.663Z,26.39
2022-08-17T19:10:16.389Z,27.64
2022-08-17T19:13:13.984Z,27.91
2022-08-17T19:15:44.260Z,28.25
2022-08-17T19:18:30.802Z,28.63
2022-08-17T19:21:07.744Z,28.81
2022-08-17T19:23:53.936Z,29.63
2022-08-17T19:26:54.199Z,28.77
2022-08-17T19:29:25.647Z,29.23
2022-08-17T19:31:56.217Z,28.94
2022-08-17T19:34:29.904Z,29.57
2022-08-17T19:37:09.983Z,30.06
2022-08-17T19:39:58.001Z,30.63
2022-08-17T19:42:47.729Z,30.23
2022-08-17T19:45:36.726Z,30.61
2022-08-17T19:48:09.656Z,29.97
2022-08-17T19:50:58.233Z,30.51
2022-08-17T19:54:05.973Z,30.36
2022-08-17T19:56:57.936Z,30.02
2022-08-17T19:59:57.400Z,30.10
2022-08-17T20:03:09.144Z,30.70
2022-08-17T20:06:09.186Z,30.59
2022-08-17T20:08:38.857Z,30.82
2022-08-17T20:11:20.374Z,30.85
2022-08-17T20:13:59.703Z,30.43
2022-08-17T20:16:27.036Z,30.91
2022-08-17T20:19:16.671Z,30.53
2022-08-17T20:21:54.324Z,30.48
2022-08-17T20:24:46.936Z,30.36
2022-08-17T20:27:36.179Z,30.02
2022-08-17T20:30:38.484Z,29.86
2022-08-17T20:33:26.597Z,29.81
2022-08-17T20:36:02.000Z,29.69
2022-08-17T20:38:41.641Z,29.60
2022-08-17T20:41:17.876Z,30.24
2022-08-17T20:43:50.860Z,30.91
2022-08-17T20:46:35.868Z,30.49
2022-08-17T20:49:08.660Z,31.49
2022-08-17T20:52:00.701Z,30.96
2022-08-17T20:54:41.580Z,31.93
2022-08-17T20:57:14.331Z,31.95
2022-08-17T20:59:45.165Z,32.49
2022-08-17T21:02:20.073Z,32.66
2022-08-17T21:04:49.856Z,31.92
2022-08-17T21:07:34.481Z,32.43
2022-08-17T21:10:22.272Z,32.26
2022-08-17T21:13:15.302Z,33.05
2022-08-17T21:15:51.789Z,32.91
2022-08-17T21:18:21.656Z,32.85
2022-08-17T21:21:01.777Z,32.28
2022-08-17T21:24:01.127Z,32.16
2022-08-17T21:26:50.395Z,32.49
2022-08-17T21:29:32.368Z,32.45
2022-08-17T21:32:05.721Z,32.43
2022-08-17T21:34:42.481Z,33.06
2022-08-17T21:37:29.604Z,33.45
2022-08-17T21:39:58.702Z,33.58
2022-08-17T21:42:32.550Z,33.44
2022-08-17T21:45:10.506Z,33.71
2022-08-17T21:47:43.445Z,33.94
2022-08-17T21:50:23.497Z,33.86
2022-08-17T21:52:54.088Z,34.65
2022-08-17T21:55:28.478Z,34.23
2022-08-17T21:58:14.034Z,34.02
2022-08-17T22:00:44.479Z,33.67
2022-08-17T22:03:30.291Z,34.05
2022-08-17T22:05:57.125Z,34.52
2022-08-17T22:08:26.438Z,34.71
2022-08-17T22:11:02.035Z,34.38
2022-08-17T22:13:29.854Z,34.33
2022-08-17T22:16:15.475Z,34.71
2022-08-17T22:18:57.924Z,34.47
2022-08-17T22:21:25.889Z,34.41
2022-08-17T22:24:06.273Z,34.46
2022-08-17T22:27:00.307Z,34.59
2022-08-17T22:29:53.317Z,34.91
2022-08-17T22:32:38.145Z,34.98
2022-08-17T22:35:43.673Z,34.99
2022-08-17T22:38:19.903Z,34.71
2022-08-17T22:40:49.671Z,35.50
2022-08-17T22:43:21.322Z,35.40
2022-08-17T22:45:56.762Z,36.03
2022-08-17T22:48:27.468Z,35.99
2022-08-17T22:51:12.780Z,35.57
2022-08-17T22:54:12.617Z,35.39
2022-08-17T22:57:15.035Z,35.22
2022-08-17T22:59:50.234Z,35.55
2022-08-17T23:02:17.167Z,35.90
2022-08-17T23:04:48.692Z,35.73
2022-08-17T23:07:15.893Z,35.80
2022-08-17T23:09:42.764Z,35.40
2022-08-17T23:12:14.896Z,35.30
2022-08-17T23:14:45.516Z,36.00
2022-08-17T23:17:13.440Z,35.91
2022-08-17T23:19:40.557Z,37.13
2022-08-17T23:22:09.777Z,37.14
2022-08-17T23:24:46.288Z,37.34
2022-08-17T23:27:13.207Z,37.78
2022-08-17T23:29:41.989Z,37.70
2022-08-17T23:32:13.517Z,38.57
2022-08-17T23:34:42.972Z,38.37
2022-08-17T23:37:12.079Z,38.57
2022-08-17T23:39:39.874Z,38.87
2022-08-17T23:42:11.110Z,39.04
2022-08-17T23:44:40.106Z,38.94
2022-08-17T23:47:07.819Z,38.81
2022-08-17T23:49:36.248Z,39.12
2022-08-17T23:52:07.181Z,38.71
2022-08-17T23:54:43.855Z,40.46
2022-08-17T23:57:17.380Z,40.00
2022-08-17T23:59:45.068Z,39.08
